sensor_id;sensor_type;location;lat;lon;timestamp;pressure;altitude;pressure_sealevel;temperature
35582;BMP180;21687;48.900;9.188;2023-01-01T00:01:06;98664.00;;;12.30
35582;BMP180;21687;48.900;9.188;2023-01-01T00:03:32;98668.00;;;12.30
35582;BMP180;21687;48.900;9.188;2023-01-01T00:06:03;98659.00;;;12.30
35582;BMP180;21687;48.900;9.188;2023-01-01T00:08:29;98671.00;;;12.30
35582;BMP180;21687;48.900;9.188;2023-01-01T00:11:00;98679.00;;;12.20
35582;BMP180;21687;48.900;9.188;2023-01-01T00:13:27;98676.00;;;12.20
35582;BMP180;21687;48.900;9.188;2023-01-01T00:15:53;98675.00;;;12.10
35582;BMP180;21687;48.900;9.188;2023-01-01T00:18:19;98682.00;;;12.10
35582;BMP180;21687;48.900;9.188;2023-01-01T00:20:45;98688.00;;;12.00
35582;BMP180;21687;48.900;9.188;2023-01-01T00:23:12;98684.00;;;12.10
35582;BMP180;21687;48.900;9.188;2023-01-01T00:25:41;98692.00;;;12.20
35582;BMP180;21687;48.900;9.188;2023-01-01T00:28:07;98681.00;;;12.20
35582;BMP180;21687;48.900;9.188;2023-01-01T00:30:37;98683.00;;;12.20
35582;BMP180;21687;48.900;9.188;2023-01-01T00:33:04;98679.00;;;12.20
35582;BMP180;21687;48.900;9.188;2023-01-01T00:35:30;98679.00;;;12.20
35582;BMP180;21687;48.900;9.188;2023-01-01T00:37:56;98683.00;;;12.20
35582;BMP180;21687;48.900;9.188;2023-01-01T00:40:23;98679.00;;;12.20
35582;BMP180;21687;48.900;9.188;2023-01-01T00:42:49;98679.00;;;12.20
35582;BMP180;21687;48.900;9.188;2023-01-01T00:45:15;98681.00;;;12.10
35582;BMP180;21687;48.900;9.188;2023-01-01T00:47:42;98682.00;;;12.00
35582;BMP180;21687;48.900;9.188;2023-01-01T00:50:08;98675.00;;;12.00
35582;BMP180;21687;48.900;9.188;2023-01-01T00:52:34;98678.00;;;12.00
35582;BMP180;21687;48.900;9.188;2023-01-01T00:55:01;98670.00;;;12.00
35582;BMP180;21687;48.900;9.188;2023-01-01T00:57:27;98678.00;;;12.00
35582;BMP180;21687;48.900;9.188;2023-01-01T00:59:53;98673.00;;;12.10
35582;BMP180;21687;48.900;9.188;2023-01-01T01:02:19;98678.00;;;12.00
35582;BMP180;21687;48.900;9.188;2023-01-01T01:04:45;98672.00;;;12.10
35582;BMP180;21687;48.900;9.188;2023-01-01T01:07:12;98664.00;;;12.30
35582;BMP180;21687;48.900;9.188;2023-01-01T01:09:38;98677.00;;;12.30
35582;BMP180;21687;48.900;9.188;2023-01-01T01:12:04;98672.00;;;12.20
35582;BMP180;21687;48.900;9.188;2023-01-01T01:14:31;98685.00;;;12.20
35582;BMP180;21687;48.900;9.188;2023-01-01T01:16:57;98672.00;;;12.30
35582;BMP180;21687;48.900;9.188;2023-01-01T01:19:24;98683.00;;;12.40
35582;BMP180;21687;48.900;9.188;2023-01-01T01:21:51;98680.00;;;12.30
35582;BMP180;21687;48.900;9.188;2023-01-01T01:24:18;98681.00;;;12.30
35582;BMP180;21687;48.900;9.188;2023-01-01T01:26:44;98686.00;;;12.20
35582;BMP180;21687;48.900;9.188;2023-01-01T01:29:10;98681.00;;;12.20
35582;BMP180;21687;48.900;9.188;2023-01-01T01:31:36;98676.00;;;12.10
35582;BMP180;21687;48.900;9.188;2023-01-01T01:34:03;98695.00;;;12.00
35582;BMP180;21687;48.900;9.188;2023-01-01T01:36:29;98689.00;;;12.00
35582;BMP180;21687;48.900;9.188;2023-01-01T01:38:55;98689.00;;;12.00
35582;BMP180;21687;48.900;9.188;2023-01-01T01:41:24;98688.00;;;12.00
35582;BMP180;21687;48.900;9.188;2023-01-01T01:43:59;98683.00;;;12.00
35582;BMP180;21687;48.900;9.188;2023-01-01T01:46:38;98691.00;;;11.80
35582;BMP180;21687;48.900;9.188;2023-01-01T01:49:15;98694.00;;;11.80
35582;BMP180;21687;48.900;9.188;2023-01-01T01:51:43;98690.00;;;11.70
35582;BMP180;21687;48.900;9.188;2023-01-01T01:54:18;98698.00;;;11.70
35582;BMP180;21687;48.900;9.188;2023-01-01T01:56:48;98701.00;;;11.60
35582;BMP180;21687;48.900;9.188;2023-01-01T01:59:17;98697.00;;;11.60
35582;BMP180;21687;48.900;9.188;2023-01-01T02:01:43;98701.00;;;11.60
35582;BMP180;21687;48.900;9.188;2023-01-01T02:04:10;98698.00;;;11.60
35582;BMP180;21687;48.900;9.188;2023-01-01T02:06:38;98700.00;;;11.70
35582;BMP180;21687;48.900;9.188;2023-01-01T02:09:06;98710.00;;;11.70
35582;BMP180;21687;48.900;9.188;2023-01-01T02:11:33;98703.00;;;11.70
35582;BMP180;21687;48.900;9.188;2023-01-01T02:14:00;98707.00;;;12.00
35582;BMP180;21687;48.900;9.188;2023-01-01T02:16:46;98706.00;;;11.80
35582;BMP180;21687;48.900;9.188;2023-01-01T02:19:54;98709.00;;;11.70
35582;BMP180;21687;48.900;9.188;2023-01-01T02:27:45;98718.00;;;11.60
35582;BMP180;21687;48.900;9.188;2023-01-01T02:30:15;98706.00;;;11.70
35582;BMP180;21687;48.900;9.188;2023-01-01T02:32:44;98718.00;;;11.60
35582;BMP180;21687;48.900;9.188;2023-01-01T02:35:27;98720.00;;;11.60
35582;BMP180;21687;48.900;9.188;2023-01-01T02:38:12;98722.00;;;11.60
35582;BMP180;21687;48.900;9.188;2023-01-01T02:40:48;98725.00;;;11.70
35582;BMP180;21687;48.900;9.188;2023-01-01T02:43:14;98724.00;;;11.60
35582;BMP180;21687;48.900;9.188;2023-01-01T02:45:41;98717.00;;;11.50
35582;BMP180;21687;48.900;9.188;2023-01-01T02:48:34;98721.00;;;11.50
35582;BMP180;21687;48.900;9.188;2023-01-01T02:51:08;98713.00;;;11.30
35582;BMP180;21687;48.900;9.188;2023-01-01T02:53:40;98725.00;;;11.40
35582;BMP180;21687;48.900;9.188;2023-01-01T02:56:11;98723.00;;;11.30
35582;BMP180;21687;48.900;9.188;2023-01-01T03:02:03;98728.00;;;11.20
35582;BMP180;21687;48.900;9.188;2023-01-01T03:11:04;98725.00;;;11.10
35582;BMP180;21687;48.900;9.188;2023-01-01T03:16:42;98725.00;;;11.00
35582;BMP180;21687;48.900;9.188;2023-01-01T03:19:14;98726.00;;;11.00
35582;BMP180;21687;48.900;9.188;2023-01-01T03:21:43;98724.00;;;11.00
35582;BMP180;21687;48.900;9.188;2023-01-01T03:27:33;98737.00;;;11.10
35582;BMP180;21687;48.900;9.188;2023-01-01T03:30:02;98733.00;;;11.10
35582;BMP180;21687;48.900;9.188;2023-01-01T03:32:44;98739.00;;;11.20
35582;BMP180;21687;48.900;9.188;2023-01-01T03:35:27;98756.00;;;11.10
35582;BMP180;21687;48.900;9.188;2023-01-01T03:37:57;98753.00;;;11.20
35582;BMP180;21687;48.900;9.188;2023-01-01T03:40:25;98764.00;;;11.10
35582;BMP180;21687;48.900;9.188;2023-01-01T03:43:04;98758.00;;;11.00
35582;BMP180;21687;48.900;9.188;2023-01-01T03:45:36;98748.00;;;11.20
35582;BMP180;21687;48.900;9.188;2023-01-01T03:48:04;98749.00;;;11.20
35582;BMP180;21687;48.900;9.188;2023-01-01T03:51:10;98739.00;;;11.20
35582;BMP180;21687;48.900;9.188;2023-01-01T03:53:42;98740.00;;;11.20
35582;BMP180;21687;48.900;9.188;2023-01-01T03:56:17;98748.00;;;11.20
35582;BMP180;21687;48.900;9.188;2023-01-01T03:58:53;98747.00;;;11.20
35582;BMP180;21687;48.900;9.188;2023-01-01T04:01:32;98743.00;;;11.20
35582;BMP180;21687;48.900;9.188;2023-01-01T04:04:00;98747.00;;;11.20
35582;BMP180;21687;48.900;9.188;2023-01-01T04:06:29;98737.00;;;11.20
35582;BMP180;21687;48.900;9.188;2023-01-01T04:08:58;98746.00;;;11.30
35582;BMP180;21687;48.900;9.188;2023-01-01T04:11:28;98740.00;;;11.30
35582;BMP180;21687;48.900;9.188;2023-01-01T04:14:24;98742.00;;;11.40
35582;BMP180;21687;48.900;9.188;2023-01-01T04:16:51;98743.00;;;11.40
35582;BMP180;21687;48.900;9.188;2023-01-01T04:19:17;98742.00;;;11.40
35582;BMP180;21687;48.900;9.188;2023-01-01T04:21:43;98739.00;;;11.50
35582;BMP180;21687;48.900;9.188;2023-01-01T04:24:09;98740.00;;;11.50
35582;BMP180;21687;48.900;9.188;2023-01-01T04:26:36;98734.00;;;11.60
35582;BMP180;21687;48.900;9.188;2023-01-01T04:29:02;98733.00;;;11.70
35582;BMP180;21687;48.900;9.188;2023-01-01T04:31:28;98736.00;;;11.80
35582;BMP180;21687;48.900;9.188;2023-01-01T04:33:54;98729.00;;;11.80
35582;BMP180;21687;48.900;9.188;2023-01-01T04:36:21;98723.00;;;11.80
35582;BMP180;21687;48.900;9.188;2023-01-01T04:38:47;98732.00;;;11.80
35582;BMP180;21687;48.900;9.188;2023-01-01T04:41:13;98725.00;;;11.80
35582;BMP180;21687;48.900;9.188;2023-01-01T04:43:39;98719.00;;;11.80
35582;BMP180;21687;48.900;9.188;2023-01-01T04:46:05;98721.00;;;11.70
35582;BMP180;21687;48.900;9.188;2023-01-01T04:48:34;98723.00;;;11.70
35582;BMP180;21687;48.900;9.188;2023-01-01T04:51:03;98723.00;;;11.60
35582;BMP180;21687;48.900;9.188;2023-01-01T04:53:31;98734.00;;;11.50
35582;BMP180;21687;48.900;9.188;2023-01-01T04:56:14;98730.00;;;11.60
35582;BMP180;21687;48.900;9.188;2023-01-01T04:58:42;98734.00;;;11.50
35582;BMP180;21687;48.900;9.188;2023-01-01T05:01:14;98739.00;;;11.40
35582;BMP180;21687;48.900;9.188;2023-01-01T05:03:41;98746.00;;;11.50
35582;BMP180;21687;48.900;9.188;2023-01-01T05:06:09;98741.00;;;11.50
35582;BMP180;21687;48.900;9.188;2023-01-01T05:08:38;98753.00;;;11.40
35582;BMP180;21687;48.900;9.188;2023-01-01T05:11:07;98751.00;;;11.40
35582;BMP180;21687;48.900;9.188;2023-01-01T05:13:35;98751.00;;;11.40
35582;BMP180;21687;48.900;9.188;2023-01-01T05:16:09;98754.00;;;11.40
35582;BMP180;21687;48.900;9.188;2023-01-01T05:18:36;98765.00;;;11.50
35582;BMP180;21687;48.900;9.188;2023-01-01T05:21:06;98768.00;;;11.50
35582;BMP180;21687;48.900;9.188;2023-01-01T05:23:33;98769.00;;;11.40
35582;BMP180;21687;48.900;9.188;2023-01-01T05:26:00;98759.00;;;11.40
35582;BMP180;21687;48.900;9.188;2023-01-01T05:28:32;98767.00;;;11.30
35582;BMP180;21687;48.900;9.188;2023-01-01T05:31:03;98763.00;;;11.30
35582;BMP180;21687;48.900;9.188;2023-01-01T05:33:29;98764.00;;;11.30
35582;BMP180;21687;48.900;9.188;2023-01-01T05:35:56;98757.00;;;11.20
35582;BMP180;21687;48.900;9.188;2023-01-01T05:38:22;98758.00;;;11.20
35582;BMP180;21687;48.900;9.188;2023-01-01T05:40:48;98757.00;;;11.20
35582;BMP180;21687;48.900;9.188;2023-01-01T05:43:16;98760.00;;;11.30
35582;BMP180;21687;48.900;9.188;2023-01-01T05:45:43;98761.00;;;11.20
35582;BMP180;21687;48.900;9.188;2023-01-01T05:48:10;98760.00;;;11.30
35582;BMP180;21687;48.900;9.188;2023-01-01T05:50:36;98773.00;;;11.30
35582;BMP180;21687;48.900;9.188;2023-01-01T05:53:03;98771.00;;;11.30
35582;BMP180;21687;48.900;9.188;2023-01-01T05:55:29;98769.00;;;11.20
35582;BMP180;21687;48.900;9.188;2023-01-01T05:57:56;98767.00;;;11.20
35582;BMP180;21687;48.900;9.188;2023-01-01T06:00:23;98772.00;;;11.20
35582;BMP180;21687;48.900;9.188;2023-01-01T06:02:49;98781.00;;;11.20
35582;BMP180;21687;48.900;9.188;2023-01-01T06:05:17;98780.00;;;11.30
35582;BMP180;21687;48.900;9.188;2023-01-01T06:07:43;98793.00;;;11.30
35582;BMP180;21687;48.900;9.188;2023-01-01T06:10:09;98783.00;;;11.20
35582;BMP180;21687;48.900;9.188;2023-01-01T06:12:35;98774.00;;;11.30
35582;BMP180;21687;48.900;9.188;2023-01-01T06:15:02;98794.00;;;11.20
35582;BMP180;21687;48.900;9.188;2023-01-01T06:17:28;98797.00;;;11.20
35582;BMP180;21687;48.900;9.188;2023-01-01T06:19:54;98798.00;;;11.20
35582;BMP180;21687;48.900;9.188;2023-01-01T06:22:20;98800.00;;;11.30
35582;BMP180;21687;48.900;9.188;2023-01-01T06:24:46;98805.00;;;11.30
35582;BMP180;21687;48.900;9.188;2023-01-01T06:27:13;98795.00;;;11.30
35582;BMP180;21687;48.900;9.188;2023-01-01T06:29:39;98812.00;;;11.40
35582;BMP180;21687;48.900;9.188;2023-01-01T06:32:05;98804.00;;;11.30
35582;BMP180;21687;48.900;9.188;2023-01-01T06:34:31;98812.00;;;11.30
35582;BMP180;21687;48.900;9.188;2023-01-01T06:36:58;98810.00;;;11.20
35582;BMP180;21687;48.900;9.188;2023-01-01T06:39:24;98812.00;;;11.10
35582;BMP180;21687;48.900;9.188;2023-01-01T06:41:50;98814.00;;;11.10
35582;BMP180;21687;48.900;9.188;2023-01-01T06:44:17;98809.00;;;11.20
35582;BMP180;21687;48.900;9.188;2023-01-01T06:46:43;98803.00;;;11.10
35582;BMP180;21687;48.900;9.188;2023-01-01T06:49:12;98803.00;;;11.10
35582;BMP180;21687;48.900;9.188;2023-01-01T06:51:41;98808.00;;;11.00
35582;BMP180;21687;48.900;9.188;2023-01-01T06:54:09;98795.00;;;10.90
35582;BMP180;21687;48.900;9.188;2023-01-01T06:56:36;98791.00;;;10.90
35582;BMP180;21687;48.900;9.188;2023-01-01T06:59:02;98799.00;;;11.00
35582;BMP180;21687;48.900;9.188;2023-01-01T07:01:31;98804.00;;;11.10
35582;BMP180;21687;48.900;9.188;2023-01-01T07:03:59;98787.00;;;11.10
35582;BMP180;21687;48.900;9.188;2023-01-01T07:06:28;98797.00;;;11.10
35582;BMP180;21687;48.900;9.188;2023-01-01T07:08:55;98804.00;;;11.10
35582;BMP180;21687;48.900;9.188;2023-01-01T07:11:21;98807.00;;;11.20
35582;BMP180;21687;48.900;9.188;2023-01-01T07:13:48;98803.00;;;11.10
35582;BMP180;21687;48.900;9.188;2023-01-01T07:16:14;98803.00;;;11.10
35582;BMP180;21687;48.900;9.188;2023-01-01T07:18:41;98811.00;;;11.20
35582;BMP180;21687;48.900;9.188;2023-01-01T07:21:31;98803.00;;;11.20
35582;BMP180;21687;48.900;9.188;2023-01-01T07:23:59;98803.00;;;11.20
35582;BMP180;21687;48.900;9.188;2023-01-01T07:26:27;98814.00;;;11.30
35582;BMP180;21687;48.900;9.188;2023-01-01T07:28:53;98818.00;;;11.20
35582;BMP180;21687;48.900;9.188;2023-01-01T07:31:20;98820.00;;;11.20
35582;BMP180;21687;48.900;9.188;2023-01-01T07:33:46;98822.00;;;11.20
35582;BMP180;21687;48.900;9.188;2023-01-01T07:36:12;98826.00;;;11.20
35582;BMP180;21687;48.900;9.188;2023-01-01T07:38:38;98828.00;;;11.20
35582;BMP180;21687;48.900;9.188;2023-01-01T07:41:05;98836.00;;;11.20
35582;BMP180;21687;48.900;9.188;2023-01-01T07:43:31;98836.00;;;11.10
35582;BMP180;21687;48.900;9.188;2023-01-01T07:45:58;98843.00;;;11.10
35582;BMP180;21687;48.900;9.188;2023-01-01T07:48:25;98840.00;;;11.00
35582;BMP180;21687;48.900;9.188;2023-01-01T07:50:51;98860.00;;;11.20
35582;BMP180;21687;48.900;9.188;2023-01-01T07:53:17;98862.00;;;11.10
35582;BMP180;21687;48.900;9.188;2023-01-01T07:55:43;98857.00;;;11.20
35582;BMP180;21687;48.900;9.188;2023-01-01T07:58:11;98869.00;;;11.20
35582;BMP180;21687;48.900;9.188;2023-01-01T08:00:38;98867.00;;;11.30
35582;BMP180;21687;48.900;9.188;2023-01-01T08:03:05;98870.00;;;11.20
35582;BMP180;21687;48.900;9.188;2023-01-01T08:05:32;98875.00;;;11.20
35582;BMP180;21687;48.900;9.188;2023-01-01T08:08:00;98887.00;;;11.30
35582;BMP180;21687;48.900;9.188;2023-01-01T08:10:27;98885.00;;;11.20
35582;BMP180;21687;48.900;9.188;2023-01-01T08:13:02;98896.00;;;11.30
35582;BMP180;21687;48.900;9.188;2023-01-01T08:15:28;98883.00;;;11.30
35582;BMP180;21687;48.900;9.188;2023-01-01T08:17:56;98887.00;;;11.40
35582;BMP180;21687;48.900;9.188;2023-01-01T08:20:22;98887.00;;;11.40
35582;BMP180;21687;48.900;9.188;2023-01-01T08:22:49;98897.00;;;11.40
35582;BMP180;21687;48.900;9.188;2023-01-01T08:25:15;98892.00;;;11.40
35582;BMP180;21687;48.900;9.188;2023-01-01T08:27:41;98901.00;;;11.50
35582;BMP180;21687;48.900;9.188;2023-01-01T08:30:09;98899.00;;;11.40
35582;BMP180;21687;48.900;9.188;2023-01-01T08:32:36;98901.00;;;11.50
35582;BMP180;21687;48.900;9.188;2023-01-01T08:35:02;98897.00;;;11.50
35582;BMP180;21687;48.900;9.188;2023-01-01T08:37:29;98899.00;;;11.50
35582;BMP180;21687;48.900;9.188;2023-01-01T08:39:55;98902.00;;;11.60
35582;BMP180;21687;48.900;9.188;2023-01-01T08:42:21;98908.00;;;11.60
35582;BMP180;21687;48.900;9.188;2023-01-01T08:44:47;98921.00;;;11.70
35582;BMP180;21687;48.900;9.188;2023-01-01T08:47:22;98921.00;;;11.80
35582;BMP180;21687;48.900;9.188;2023-01-01T08:49:49;98915.00;;;11.80
35582;BMP180;21687;48.900;9.188;2023-01-01T08:52:16;98926.00;;;11.90
35582;BMP180;21687;48.900;9.188;2023-01-01T08:54:42;98928.00;;;12.00
35582;BMP180;21687;48.900;9.188;2023-01-01T08:57:08;98937.00;;;12.00
35582;BMP180;21687;48.900;9.188;2023-01-01T08:59:35;98931.00;;;12.10
35582;BMP180;21687;48.900;9.188;2023-01-01T09:02:01;98936.00;;;12.20
35582;BMP180;21687;48.900;9.188;2023-01-01T09:04:27;98930.00;;;12.20
35582;BMP180;21687;48.900;9.188;2023-01-01T09:06:53;98932.00;;;12.30
35582;BMP180;21687;48.900;9.188;2023-01-01T09:09:19;98925.00;;;12.30
35582;BMP180;21687;48.900;9.188;2023-01-01T09:11:54;98929.00;;;12.30
35582;BMP180;21687;48.900;9.188;2023-01-01T09:14:21;98936.00;;;12.30
35582;BMP180;21687;48.900;9.188;2023-01-01T09:16:47;98930.00;;;12.30
35582;BMP180;21687;48.900;9.188;2023-01-01T09:19:14;98931.00;;;12.50
35582;BMP180;21687;48.900;9.188;2023-01-01T09:21:40;98933.00;;;12.50
35582;BMP180;21687;48.900;9.188;2023-01-01T09:24:06;98932.00;;;12.50
35582;BMP180;21687;48.900;9.188;2023-01-01T09:26:33;98936.00;;;12.60
35582;BMP180;21687;48.900;9.188;2023-01-01T09:28:59;98933.00;;;12.70
35582;BMP180;21687;48.900;9.188;2023-01-01T09:31:25;98932.00;;;12.70
35582;BMP180;21687;48.900;9.188;2023-01-01T09:33:51;98932.00;;;12.70
35582;BMP180;21687;48.900;9.188;2023-01-01T09:38:52;98935.00;;;12.90
35582;BMP180;21687;48.900;9.188;2023-01-01T09:46:59;98945.00;;;13.10
35582;BMP180;21687;48.900;9.188;2023-01-01T09:49:41;98938.00;;;13.30
35582;BMP180;21687;48.900;9.188;2023-01-01T09:52:13;98951.00;;;13.40
35582;BMP180;21687;48.900;9.188;2023-01-01T09:54:59;98952.00;;;13.50
35582;BMP180;21687;48.900;9.188;2023-01-01T09:57:31;98951.00;;;13.50
35582;BMP180;21687;48.900;9.188;2023-01-01T09:59:58;98955.00;;;13.60
35582;BMP180;21687;48.900;9.188;2023-01-01T10:06:28;98937.00;;;13.80
35582;BMP180;21687;48.900;9.188;2023-01-01T10:13:38;98938.00;;;13.90
35582;BMP180;21687;48.900;9.188;2023-01-01T10:18:55;98931.00;;;13.90
35582;BMP180;21687;48.900;9.188;2023-01-01T10:21:32;98927.00;;;13.80
35582;BMP180;21687;48.900;9.188;2023-01-01T10:24:22;98932.00;;;13.80
35582;BMP180;21687;48.900;9.188;2023-01-01T10:26:48;98934.00;;;13.80
35582;BMP180;21687;48.900;9.188;2023-01-01T10:29:21;98935.00;;;13.90
35582;BMP180;21687;48.900;9.188;2023-01-01T10:31:49;98929.00;;;13.90
35582;BMP180;21687;48.900;9.188;2023-01-01T10:34:24;98937.00;;;13.90
35582;BMP180;21687;48.900;9.188;2023-01-01T10:36:57;98934.00;;;13.90
35582;BMP180;21687;48.900;9.188;2023-01-01T10:39:24;98937.00;;;14.00
35582;BMP180;21687;48.900;9.188;2023-01-01T10:41:50;98937.00;;;14.10
35582;BMP180;21687;48.900;9.188;2023-01-01T10:44:29;98946.00;;;14.10
35582;BMP180;21687;48.900;9.188;2023-01-01T10:46:58;98936.00;;;14.10
35582;BMP180;21687;48.900;9.188;2023-01-01T10:49:24;98940.00;;;14.10
35582;BMP180;21687;48.900;9.188;2023-01-01T10:51:52;98936.00;;;14.20
35582;BMP180;21687;48.900;9.188;2023-01-01T10:54:37;98937.00;;;14.30
35582;BMP180;21687;48.900;9.188;2023-01-01T10:59:52;98923.00;;;14.40
35582;BMP180;21687;48.900;9.188;2023-01-01T11:02:26;98934.00;;;14.60
35582;BMP180;21687;48.900;9.188;2023-01-01T11:05:17;98934.00;;;14.70
35582;BMP180;21687;48.900;9.188;2023-01-01T11:07:43;98927.00;;;14.70
35582;BMP180;21687;48.900;9.188;2023-01-01T11:10:19;98924.00;;;14.70
35582;BMP180;21687;48.900;9.188;2023-01-01T11:12:46;98922.00;;;14.70
35582;BMP180;21687;48.900;9.188;2023-01-01T11:15:35;98918.00;;;14.80
35582;BMP180;21687;48.900;9.188;2023-01-01T11:18:04;98913.00;;;14.90
35582;BMP180;21687;48.900;9.188;2023-01-01T11:20:32;98907.00;;;15.00
35582;BMP180;21687;48.900;9.188;2023-01-01T11:22:59;98914.00;;;15.00
35582;BMP180;21687;48.900;9.188;2023-01-01T11:25:56;98904.00;;;15.10
35582;BMP180;21687;48.900;9.188;2023-01-01T11:28:23;98905.00;;;15.20
35582;BMP180;21687;48.900;9.188;2023-01-01T11:31:17;98890.00;;;15.20
35582;BMP180;21687;48.900;9.188;2023-01-01T11:33:48;98899.00;;;15.20
35582;BMP180;21687;48.900;9.188;2023-01-01T11:36:32;98890.00;;;15.20
35582;BMP180;21687;48.900;9.188;2023-01-01T11:39:18;98890.00;;;15.40
35582;BMP180;21687;48.900;9.188;2023-01-01T11:41:56;98881.00;;;15.40
35582;BMP180;21687;48.900;9.188;2023-01-01T11:44:45;98871.00;;;15.40
35582;BMP180;21687;48.900;9.188;2023-01-01T11:47:30;98881.00;;;15.40
35582;BMP180;21687;48.900;9.188;2023-01-01T11:50:05;98873.00;;;15.40
35582;BMP180;21687;48.900;9.188;2023-01-01T11:52:40;98861.00;;;15.50
35582;BMP180;21687;48.900;9.188;2023-01-01T12:00:56;98867.00;;;15.50
35582;BMP180;21687;48.900;9.188;2023-01-01T12:04:08;98867.00;;;15.50
35582;BMP180;21687;48.900;9.188;2023-01-01T12:12:09;98845.00;;;15.50
35582;BMP180;21687;48.900;9.188;2023-01-01T12:17:37;98850.00;;;15.60
35582;BMP180;21687;48.900;9.188;2023-01-01T12:20:29;98852.00;;;15.60
35582;BMP180;21687;48.900;9.188;2023-01-01T12:22:58;98842.00;;;15.70
35582;BMP180;21687;48.900;9.188;2023-01-01T12:25:32;98843.00;;;15.70
35582;BMP180;21687;48.900;9.188;2023-01-01T12:30:52;98840.00;;;15.70
35582;BMP180;21687;48.900;9.188;2023-01-01T12:44:31;98826.00;;;15.80
35582;BMP180;21687;48.900;9.188;2023-01-01T12:47:27;98818.00;;;15.80
35582;BMP180;21687;48.900;9.188;2023-01-01T12:58:13;98824.00;;;16.00
35582;BMP180;21687;48.900;9.188;2023-01-01T13:00:46;98825.00;;;15.90
35582;BMP180;21687;48.900;9.188;2023-01-01T13:03:24;98821.00;;;15.90
35582;BMP180;21687;48.900;9.188;2023-01-01T13:05:53;98822.00;;;16.00
35582;BMP180;21687;48.900;9.188;2023-01-01T13:08:21;98827.00;;;15.90
35582;BMP180;21687;48.900;9.188;2023-01-01T13:10:53;98817.00;;;15.90
35582;BMP180;21687;48.900;9.188;2023-01-01T13:13:21;98814.00;;;15.90
35582;BMP180;21687;48.900;9.188;2023-01-01T13:15:50;98814.00;;;15.90
35582;BMP180;21687;48.900;9.188;2023-01-01T13:18:23;98814.00;;;16.00
35582;BMP180;21687;48.900;9.188;2023-01-01T13:20:56;98815.00;;;15.90
35582;BMP180;21687;48.900;9.188;2023-01-01T13:39:53;98796.00;;;15.90
35582;BMP180;21687;48.900;9.188;2023-01-01T13:45:21;98783.00;;;15.80
35582;BMP180;21687;48.900;9.188;2023-01-01T13:48:15;98792.00;;;15.90
35582;BMP180;21687;48.900;9.188;2023-01-01T14:07:51;98794.00;;;15.50
35582;BMP180;21687;48.900;9.188;2023-01-01T14:10:27;98788.00;;;15.50
35582;BMP180;21687;48.900;9.188;2023-01-01T14:13:14;98785.00;;;15.60
35582;BMP180;21687;48.900;9.188;2023-01-01T14:15:53;98794.00;;;15.70
35582;BMP180;21687;48.900;9.188;2023-01-01T14:18:56;98793.00;;;15.80
35582;BMP180;21687;48.900;9.188;2023-01-01T14:21:26;98795.00;;;15.70
35582;BMP180;21687;48.900;9.188;2023-01-01T14:24:05;98793.00;;;15.70
35582;BMP180;21687;48.900;9.188;2023-01-01T14:26:35;98802.00;;;15.60
35582;BMP180;21687;48.900;9.188;2023-01-01T14:29:06;98799.00;;;15.60
35582;BMP180;21687;48.900;9.188;2023-01-01T14:31:41;98800.00;;;15.40
35582;BMP180;21687;48.900;9.188;2023-01-01T14:34:31;98802.00;;;15.30
35582;BMP180;21687;48.900;9.188;2023-01-01T14:37:00;98806.00;;;15.30
35582;BMP180;21687;48.900;9.188;2023-01-01T14:39:36;98804.00;;;15.20
35582;BMP180;21687;48.900;9.188;2023-01-01T14:42:14;98807.00;;;15.00
35582;BMP180;21687;48.900;9.188;2023-01-01T14:44:43;98793.00;;;15.00
35582;BMP180;21687;48.900;9.188;2023-01-01T14:47:33;98798.00;;;15.00
35582;BMP180;21687;48.900;9.188;2023-01-01T14:50:03;98798.00;;;14.80
35582;BMP180;21687;48.900;9.188;2023-01-01T14:52:30;98797.00;;;14.80
35582;BMP180;21687;48.900;9.188;2023-01-01T14:55:00;98795.00;;;14.70
35582;BMP180;21687;48.900;9.188;2023-01-01T14:57:30;98801.00;;;14.60
35582;BMP180;21687;48.900;9.188;2023-01-01T14:59:57;98791.00;;;14.60
35582;BMP180;21687;48.900;9.188;2023-01-01T15:02:26;98802.00;;;14.60
35582;BMP180;21687;48.900;9.188;2023-01-01T15:04:55;98804.00;;;14.60
35582;BMP180;21687;48.900;9.188;2023-01-01T15:07:22;98806.00;;;14.60
35582;BMP180;21687;48.900;9.188;2023-01-01T15:09:50;98788.00;;;14.60
35582;BMP180;21687;48.900;9.188;2023-01-01T15:12:16;98796.00;;;14.70
35582;BMP180;21687;48.900;9.188;2023-01-01T15:14:43;98798.00;;;14.70
35582;BMP180;21687;48.900;9.188;2023-01-01T15:17:19;98804.00;;;14.60
35582;BMP180;21687;48.900;9.188;2023-01-01T15:19:59;98799.00;;;14.50
35582;BMP180;21687;48.900;9.188;2023-01-01T15:22:33;98803.00;;;14.30
35582;BMP180;21687;48.900;9.188;2023-01-01T15:25:02;98806.00;;;14.20
35582;BMP180;21687;48.900;9.188;2023-01-01T15:27:36;98800.00;;;14.10
35582;BMP180;21687;48.900;9.188;2023-01-01T15:30:05;98793.00;;;13.90
35582;BMP180;21687;48.900;9.188;2023-01-01T15:32:34;98795.00;;;13.80
35582;BMP180;21687;48.900;9.188;2023-01-01T15:35:26;98788.00;;;13.70
35582;BMP180;21687;48.900;9.188;2023-01-01T15:37:59;98801.00;;;13.60
35582;BMP180;21687;48.900;9.188;2023-01-01T15:45:28;98791.00;;;13.30
35582;BMP180;21687;48.900;9.188;2023-01-01T15:50:36;98779.00;;;13.20
35582;BMP180;21687;48.900;9.188;2023-01-01T15:53:14;98785.00;;;13.10
35582;BMP180;21687;48.900;9.188;2023-01-01T15:55:45;98778.00;;;13.20
35582;BMP180;21687;48.900;9.188;2023-01-01T16:01:30;98783.00;;;13.00
35582;BMP180;21687;48.900;9.188;2023-01-01T16:04:01;98788.00;;;12.90
35582;BMP180;21687;48.900;9.188;2023-01-01T16:06:32;98775.00;;;12.90
35582;BMP180;21687;48.900;9.188;2023-01-01T16:08:59;98780.00;;;12.90
35582;BMP180;21687;48.900;9.188;2023-01-01T16:11:25;98777.00;;;12.70
35582;BMP180;21687;48.900;9.188;2023-01-01T16:13:51;98763.00;;;12.50
35582;BMP180;21687;48.900;9.188;2023-01-01T16:16:26;98763.00;;;12.60
35582;BMP180;21687;48.900;9.188;2023-01-01T16:18:54;98763.00;;;12.50
35582;BMP180;21687;48.900;9.188;2023-01-01T16:21:27;98768.00;;;12.50
35582;BMP180;21687;48.900;9.188;2023-01-01T16:23:54;98761.00;;;12.40
35582;BMP180;21687;48.900;9.188;2023-01-01T16:26:21;98754.00;;;12.40
35582;BMP180;21687;48.900;9.188;2023-01-01T16:28:47;98767.00;;;12.40
35582;BMP180;21687;48.900;9.188;2023-01-01T16:31:25;98768.00;;;12.30
35582;BMP180;21687;48.900;9.188;2023-01-01T16:33:57;98762.00;;;12.30
35582;BMP180;21687;48.900;9.188;2023-01-01T16:36:24;98764.00;;;12.30